This is the latest recevied weather packets stored in our database for station/object KC1DMA. If no packets are shown the sender has not sent any weather packets the latest 10 day(s).
| Time | Temp. | Humidity | Pressure | Rain* | Wind** | Luminosity | Snow |
|---|---|---|---|---|---|---|---|
| 1777836388 | 11.11° C | 38% | 1010.7 hPa | - | - | 721 W/m² | - |
| 1777836083 | 12.22° C | 38% | 1010.4 hPa | - | - | 295 W/m² | - |
| 1777835775 | 11.67° C | 38% | 1010.6 hPa | - | - | 709 W/m² | - |
| 1777835472 | 12.22° C | 39% | 1010.5 hPa | - | - | 861 W/m² | - |
| 1777835169 | 11.67° C | 39% | 1010.6 hPa | - | - | 853 W/m² | - |
| 1777834866 | 10.56° C | 39% | 1010.2 hPa | - | - | 263 W/m² | - |
| 1777834562 | 11.11° C | 39% | 1010.5 hPa | - | - | 228 W/m² | - |
| 1777834262 | 11.11° C | 38% | 1010.4 hPa | - | - | 270 W/m² | - |
| 1777833958 | 11.67° C | 38% | 1010.6 hPa | - | - | 288 W/m² | - |
| 1777833655 | 12.78° C | 39% | 1010.5 hPa | - | - | 862 W/m² | - |
| 1777833351 | 11.67° C | 37% | 1010.5 hPa | - | - | 612 W/m² | - |
| 1777833048 | 11.67° C | 38% | 1010.7 hPa | - | - | 951 W/m² | - |
| 1777832747 | 11.11° C | 39% | 1010.6 hPa | - | - | 396 W/m² | - |
| 1777832445 | 10.56° C | 39% | 1010.6 hPa | - | - | 476 W/m² | - |
| 1777832141 | 10.56° C | 40% | 1010.6 hPa | - | - | 385 W/m² | - |
| 1777831838 | 10.56° C | 41% | 1010.5 hPa | - | - | 362 W/m² | - |
| 1777831535 | 10.56° C | 42% | 1010.5 hPa | - | - | 349 W/m² | - |
| 1777831232 | 10.56° C | 43% | 1010.8 hPa | - | - | 465 W/m² | - |
| 1777830924 | 10° C | 43% | 1010.7 hPa | - | - | 300 W/m² | - |
| 1777830621 | 10° C | 41% | 1010.8 hPa | - | - | 309 W/m² | - |
| 1777830319 | 10° C | 42% | 1010.9 hPa | - | - | 322 W/m² | - |
| 1777830015 | 10.56° C | 42% | 1011 hPa | - | - | 1036 W/m² | - |
| 1777829710 | 10.56° C | 44% | 1010.9 hPa | - | - | 1021 W/m² | - |
| 1777829406 | 10° C | 45% | 1011.2 hPa | - | - | 1044 W/m² | - |
| 1777829104 | 10° C | 45% | 1010.9 hPa | - | - | 451 W/m² | - |
* Rain since midnight (hover to see other rain measurements)
** Current wind speed in m/s (hover to see current wind gust speed)